x

Columbia River Bar - 20nm West Of Columbia River Mouth (46029) Wave Buoy

9:50am - Sat 22nd Jul 2017 All times are PDT. -7 hours from GMT.

  • Sig Wave height 3.9ft
  • Swell Direction
  • Peak Period 8s
  • Average Period 6s
  • Wind
    7mph, 9mph gusts
  • Sea Temp 62°f
  • Air Temp 61°f
  • Sea Pressure 1022.7mb
  • Columbia River Bar - 20nm West Of Columbia River Mouth
  • Columbia River Bar - 20nm West Of Columbia River Mouth

More Historic Weather Station data

Upgrade to MSW Pro to gain access to the past 30 days of data for over 8000 Wavebouys and Weather Stations around the globe.

Join Pro

Comparision Forecast

View Surf forecast
   
Sat 07/22 9:50am 4ft 8s 6s 7 9 mph 1022.7mb 62f 61f
8:50am 3.5ft 8s 6s 9 9 mph 1022.8mb 62f 62f
7:50am 3.5ft 8s 6s 7 9 mph 1022.5mb 62f 61f
6:50am 4ft 8s 6s 9 9 mph 1022.1mb 62f 61f
5:50am 3.5ft 8s 6s 7 9 mph 1021.8mb 62f 61f
4:50am 3.5ft 8s 6s 7 9 mph 1021.5mb 62f 62f
3:50am 3.5ft 7s 6s 7 7 mph 1021.5mb 61f 62f
2:50am 4ft 7s 6s 9 11 mph 1021.3mb 61f 62f
1:50am 4ft 6s 6s 7 9 mph 1021.4mb 61f 61f
12:50am 4.5ft 7s 6s 7 7 mph 1021.4mb 61f 61f
Fri 07/21 11:50pm 3.5ft 7s 6s 7 9 mph 1021.4mb 62f 62f
10:50pm 2.5ft 5s 5s 7 7 mph 1021.2mb 62f 62f
9:50pm 2.5ft 16s 5s 7 7 mph 1021.1mb 62f 62f
8:50pm 2ft 15s 5s 7 7 mph 1020.9mb 62f 62f
7:50pm 2ft 13s 5s 7 9 mph 1021mb 62f 63f
6:50pm 1.6ft 15s 5s 7 7 mph 1021.1mb 62f 62f
5:50pm 1.6ft 13s 5s 7 7 mph 1021.3mb 62f 62f
4:50pm 1.6ft 15s 5s 7 7 mph 1021.6mb 62f 62f
3:50pm 1.6ft 15s 5s 7 7 mph 1021.8mb 61f 62f
2:50pm 1.6ft 16s 5s 7 9 mph 1022.1mb 60f 61f
1:50pm 1.6ft 15s 5s 9 9 mph 1021.8mb 60f 61f
12:50pm 2ft 15s 5s 9 9 mph 1021.8mb 60f 60f
11:50am 2ft 13s 5s 7 9 mph 1021.7mb 60f 60f
10:50am 2ft 16s 5s 9 9 mph 1021.7mb 59f 60f
9:50am 2ft 15s 6s 7 7 mph 1021.4mb 59f 60f
8:50am 2ft 15s 6s 4 7 mph 1021.4mb 59f 60f
7:50am 2ft 13s 6s 4 4 mph 1021mb 59f 60f
6:50am 1.6ft 15s 6s 4 4 mph 1020.8mb 59f 59f
5:50am 1.6ft 13s 6s 2 4 mph 1020.7mb 59f 59f
4:50am 1.6ft 15s 6s 2 4 mph 1020.6mb 59f 59f
3:50am 1.6ft 14s 6s 2 2 mph 1020.6mb 59f 59f
2:50am 1.6ft 13s 6s 2 4 mph 1020.8mb 60f 59f
1:50am 2ft 14s 5s 2 2 mph 1020.9mb 60f 59f
12:50am 2ft 13s 5s 2 2 mph 1020.7mb 59f 60f
Thu 07/20 11:50pm 2ft 14s 5s 2 2 mph 1020.9mb 60f 60f
10:50pm 2ft 14s 5s 2 2 mph 1020.9mb 60f 60f
9:50pm 2ft 13s 5s 4 4 mph 1020.8mb 61f 60f
8:50pm 2.5ft 13s 5s 2 2 mph 1020.8mb 60f 61f
7:50pm 2.5ft 13s 5s 2 2 mph 1021.1mb 61f 62f
6:50pm 2.5ft 6s 5s 4 4 mph 1021.3mb 61f 62f
5:50pm 2.5ft 14s 5s 4 4 mph 1021.6mb 61f 62f
4:50pm 2ft 14s 5s 4 4 mph 1022.1mb 61f 62f
3:50pm 2ft 14s 5s 9 9 mph 1022.3mb 61f 61f
2:50pm 2ft 13s 5s 7 7 mph 1022.5mb 61f 61f
1:50pm 2ft 4s 5s 7 7 mph 1022.3mb 60f 61f
12:50pm 2.5ft 5s 4s 7 7 mph 1022.2mb 59f 60f
11:50am 2.5ft 6s 5s 7 7 mph 1022mb 59f 60f
10:50am 2.5ft 5s 5s 9 9 mph 1021.5mb 59f 60f
9:50am 2.5ft 6s 5s 4 7 mph 1021mb 59f 59f
8:50am 2.5ft 5s 5s 4 9 mph 1020.7mb 59f 59f
7:50am 2.5ft 14s 5s 4 4 mph 1020.3mb 59f 60f
6:50am 2ft 14s 5s 2 4 mph 1020.2mb 59f 60f
5:50am 2ft 6s 5s 4 7 mph 1019.7mb 59f 60f
4:50am 2ft 5s 5s 4 4 mph 1019.3mb 59f 60f
3:50am 2.5ft 5s 5s 7 7 mph 1018.9mb 59f 60f
2:50am 2.5ft 5s 5s 7 9 mph 1018.7mb 59f 60f
1:50am 2.5ft 6s 5s 7 7 mph 1018.6mb 57f 59f
12:50am 2ft 5s 5s 9 11 mph 1018.5mb 57f 59f
Wed 07/19 11:50pm 2ft 6s 5s 9 9 mph 1018.3mb 59f 59f
10:50pm 2ft 6s 5s 9 9 mph 1018.5mb 59f 60f
9:50pm 1.6ft 6s 5s 7 9 mph 1018.5mb 58f 60f
8:50pm 1.6ft 6s 5s 7 7 mph 1018.3mb 60f 60f
7:50pm 1.6ft 6s 6s 7 7 mph 1018.4mb 61f 61f
6:50pm 1.6ft 6s 6s 7 7 mph 1018.5mb 61f 61f
5:50pm 1.6ft 6s 6s 4 7 mph 1018.8mb 61f 61f
4:50pm 1.6ft 6s 6s 4 7 mph 1019.2mb 62f 62f
3:50pm 1.6ft 6s 6s 4 4 mph 1019.6mb 61f 62f
2:50pm 1.6ft 6s 5s 4 4 mph 1019.9mb 62f 62f
1:50pm 1.6ft 6s 5s 2 2 mph 1020mb 61f 61f
12:50pm 2ft 6s 5s 4 4 mph 1020.3mb 62f 61f
11:50am 2ft 6s 5s 2 4 mph 1020.2mb 61f 60f
10:50am 2ft 6s 5s 2 2 mph 1020.3mb 60f 60f
9:50am 2ft 6s 5s 2 4 mph 1020.4mb 58f 59f
8:50am 2ft 6s 5s 2 2 mph 1020.6mb 58f 59f
7:50am 2ft 6s 5s 2 4 mph 1020.5mb 58f 59f
6:50am 2ft 6s 5s 2 4 mph 1020.4mb 58f 59f
5:50am 2ft 6s 5s 2 4 mph 1020.4mb 59f 59f
4:50am 2ft 6s 5s 2 2 mph 1020.3mb 60f 59f
3:50am 2ft 7s 5s 2 2 mph 1020.2mb 60f 58f
2:50am 2.5ft 6s 5s 2 2 mph 1020.1mb 59f 58f
1:50am 2ft 6s 5s  -  2 mph 1020.1mb 60f 59f
12:50am 2.5ft 6s 5s 2 2 mph 1020.1mb 60f 60f
Tue 07/18 11:50pm 2.5ft 6s 5s 4 4 mph 1020mb 61f 60f
10:50pm 2.5ft 6s 5s 4 4 mph 1019.9mb 60f 60f
9:50pm 2.5ft 7s 5s 4 7 mph 1019.6mb 60f 60f
8:50pm 2.5ft 6s 5s 4 7 mph 1019.3mb 59f 60f
7:50pm 2.5ft 7s 5s 7 9 mph 1019.3mb 59f 60f
6:50pm 2ft 7s 5s 9 9 mph 1019.1mb 60f 60f